createdAt,value
2019-02-28T00:01:32.243Z,94.30
2019-02-28T00:03:59.865Z,94.40
2019-02-28T00:06:27.452Z,94.40
2019-02-28T00:08:55.170Z,94.40
2019-02-28T00:11:23.212Z,94.40
2019-02-28T00:13:52.336Z,94.40
2019-02-28T00:16:20.067Z,94.30
2019-02-28T00:18:49.926Z,94.30
2019-02-28T00:21:16.978Z,94.30
2019-02-28T00:23:46.262Z,94.20
2019-02-28T00:26:14.066Z,94.10
2019-02-28T00:28:41.486Z,94.20
2019-02-28T00:31:09.200Z,94.10
2019-02-28T00:33:37.062Z,94.10
2019-02-28T00:36:04.627Z,94.40
2019-02-28T00:38:32.236Z,94.40
2019-02-28T00:40:59.630Z,94.30
2019-02-28T00:43:27.280Z,94.30
2019-02-28T00:45:54.901Z,94.40
2019-02-28T00:48:22.473Z,94.50
2019-02-28T00:50:49.983Z,94.60
2019-02-28T00:53:18.647Z,94.50
2019-02-28T00:55:46.967Z,94.50
2019-02-28T00:58:14.517Z,94.50
2019-02-28T01:00:44.003Z,94.60
2019-02-28T01:03:11.475Z,94.60
2019-02-28T01:05:39.084Z,94.40
2019-02-28T01:08:06.559Z,94.40
2019-02-28T01:10:38.826Z,94.30
2019-02-28T01:13:03.790Z,94.20
2019-02-28T01:15:31.389Z,94.20
2019-02-28T01:18:00.439Z,94.20
2019-02-28T01:20:28.671Z,94.20
2019-02-28T01:26:06.380Z,94.20
2019-02-28T01:28:33.769Z,94.20
2019-02-28T01:31:01.080Z,94.20
2019-02-28T01:33:28.573Z,94.30
2019-02-28T01:35:55.937Z,94.30
2019-02-28T01:38:24.215Z,94.30
2019-02-28T01:40:52.623Z,94.40
2019-02-28T01:43:20.158Z,94.40
2019-02-28T01:45:47.627Z,94.50
2019-02-28T01:48:15.096Z,94.40
2019-02-28T01:50:42.698Z,94.40
2019-02-28T01:53:10.015Z,94.50
2019-02-28T01:55:38.385Z,94.50
2019-02-28T01:58:05.738Z,94.50
2019-02-28T02:00:33.287Z,94.70
2019-02-28T02:03:00.704Z,94.90
2019-02-28T02:05:28.582Z,94.70
2019-02-28T02:07:55.971Z,94.80
2019-02-28T02:10:24.088Z,94.70
2019-02-28T02:12:51.548Z,94.70
2019-02-28T02:15:19.135Z,94.60
2019-02-28T02:17:46.735Z,94.50
2019-02-28T02:20:14.457Z,94.70
2019-02-28T02:22:44.434Z,94.60
2019-02-28T02:25:11.589Z,94.60
2019-02-28T02:27:39.082Z,94.60
2019-02-28T02:30:15.923Z,94.80
2019-02-28T02:32:43.660Z,94.60
2019-02-28T02:35:10.978Z,94.60
2019-02-28T02:37:39.789Z,94.70
2019-02-28T02:40:08.411Z,94.50
2019-02-28T02:42:35.803Z,94.40
2019-02-28T02:45:05.578Z,94.30
2019-02-28T02:47:33.657Z,94.30
2019-02-28T02:50:01.339Z,94.20
2019-02-28T02:52:30.365Z,94.60
2019-02-28T02:54:58.001Z,94.50
2019-02-28T02:57:25.331Z,94.40
2019-02-28T02:59:52.813Z,94.40
2019-02-28T03:02:20.278Z,94.70
2019-02-28T03:04:47.780Z,94.70
2019-02-28T03:07:23.243Z,94.70
2019-02-28T03:09:45.504Z,94.80
2019-02-28T03:12:12.837Z,94.80
2019-02-28T03:14:40.486Z,94.80
2019-02-28T03:17:11.825Z,94.90
2019-02-28T03:19:39.475Z,95.00
2019-02-28T03:22:06.846Z,94.90
2019-02-28T03:24:34.292Z,94.80
2019-02-28T03:27:01.765Z,94.80
2019-02-28T03:29:29.188Z,94.80
2019-02-28T03:31:59.357Z,94.80
2019-02-28T03:34:25.838Z,94.90
2019-02-28T03:36:57.014Z,94.80
2019-02-28T03:39:24.507Z,94.90
2019-02-28T03:41:52.908Z,94.90
2019-02-28T03:44:21.961Z,94.90
2019-02-28T03:46:49.323Z,94.90
2019-02-28T03:49:16.678Z,94.90
2019-02-28T03:51:44.076Z,94.90
2019-02-28T03:54:11.425Z,94.80
2019-02-28T03:56:38.851Z,94.80
2019-02-28T03:59:06.383Z,94.90
2019-02-28T04:01:33.901Z,95.00
2019-02-28T04:04:01.429Z,95.00
2019-02-28T04:06:29.966Z,95.20
2019-02-28T04:08:57.441Z,95.30
2019-02-28T04:11:30.789Z,95.30
2019-02-28T04:13:56.090Z,95.20
2019-02-28T04:16:24.307Z,95.30
2019-02-28T04:18:51.797Z,95.30
2019-02-28T04:21:19.160Z,95.30
2019-02-28T04:23:46.616Z,95.50
2019-02-28T04:26:14.032Z,95.40
2019-02-28T04:28:41.563Z,95.50
2019-02-28T04:31:09.124Z,95.40
2019-02-28T04:33:39.124Z,95.40
2019-02-28T04:36:06.056Z,95.40
2019-02-28T04:38:33.378Z,95.40
2019-02-28T04:41:00.691Z,95.60
2019-02-28T04:43:28.020Z,95.70
2019-02-28T04:45:57.723Z,95.60
2019-02-28T04:48:25.850Z,95.60
2019-02-28T04:50:53.401Z,95.60
2019-02-28T04:53:20.778Z,95.60
2019-02-28T04:55:48.991Z,95.80
2019-02-28T04:58:16.326Z,95.70
2019-02-28T05:00:44.264Z,95.70
2019-02-28T05:03:12.103Z,95.70
2019-02-28T05:05:40.857Z,95.80
2019-02-28T05:08:08.579Z,95.70
2019-02-28T05:10:36.524Z,95.80
2019-02-28T05:13:03.964Z,95.90
2019-02-28T05:15:31.307Z,95.90
2019-02-28T05:17:58.662Z,95.80
2019-02-28T05:20:26.145Z,95.90
2019-02-28T05:22:53.577Z,95.90
2019-02-28T05:25:21.807Z,95.90
2019-02-28T05:27:49.389Z,95.90
2019-02-28T05:30:19.420Z,96.10
2019-02-28T05:32:46.520Z,96.10
2019-02-28T05:35:15.454Z,96.20
2019-02-28T05:37:46.705Z,96.10
2019-02-28T05:40:13.332Z,96.10
2019-02-28T05:42:40.961Z,96.20
2019-02-28T05:45:11.425Z,96.20
2019-02-28T05:47:46.280Z,96.20
2019-02-28T05:50:07.890Z,96.20
2019-02-28T05:52:35.312Z,96.50
2019-02-28T05:55:02.949Z,96.50
2019-02-28T05:57:30.311Z,96.30
2019-02-28T06:00:01.879Z,96.60
2019-02-28T06:02:27.718Z,96.30
2019-02-28T06:04:55.976Z,96.30
2019-02-28T06:07:25.916Z,96.50
2019-02-28T06:09:54.214Z,96.30
2019-02-28T06:12:21.607Z,96.30
2019-02-28T06:14:49.026Z,96.20
2019-02-28T06:17:17.342Z,96.10
2019-02-28T06:19:46.214Z,96.00
2019-02-28T06:22:13.815Z,95.90
2019-02-28T06:24:44.870Z,95.80
2019-02-28T06:27:10.986Z,95.60
2019-02-28T06:29:38.843Z,95.40
2019-02-28T06:32:06.209Z,95.30
2019-02-28T06:34:39.444Z,94.90
2019-02-28T06:37:07.392Z,94.80
2019-02-28T06:39:34.714Z,94.80
2019-02-28T06:42:02.309Z,94.60
2019-02-28T06:44:29.634Z,94.30
2019-02-28T06:46:57.072Z,94.00
2019-02-28T06:49:24.468Z,93.60
2019-02-28T06:51:52.171Z,93.00
2019-02-28T06:54:20.501Z,92.10
2019-02-28T06:56:47.874Z,91.30
2019-02-28T06:59:16.251Z,90.20
2019-02-28T07:01:44.175Z,88.20
2019-02-28T07:04:14.462Z,86.00
2019-02-28T07:06:41.380Z,84.20
2019-02-28T07:09:08.792Z,81.50
2019-02-28T07:11:36.245Z,78.20
2019-02-28T07:14:03.789Z,76.10
2019-02-28T07:16:34.564Z,73.30
2019-02-28T07:19:02.398Z,70.70
2019-02-28T07:21:30.983Z,66.60
2019-02-28T07:23:58.395Z,64.10
2019-02-28T07:26:25.721Z,62.10
2019-02-28T07:28:53.215Z,59.80
2019-02-28T07:31:21.745Z,57.60
2019-02-28T07:33:51.403Z,56.40
2019-02-28T07:36:18.884Z,53.80
2019-02-28T07:38:46.352Z,51.90
2019-02-28T07:41:14.140Z,51.20
2019-02-28T07:43:45.857Z,49.60
2019-02-28T07:46:10.724Z,48.70
2019-02-28T07:48:38.207Z,47.50
2019-02-28T07:51:05.822Z,46.40
2019-02-28T07:53:33.483Z,44.90
2019-02-28T07:56:03.851Z,43.50
2019-02-28T07:58:34.444Z,42.90
2019-02-28T08:01:01.824Z,41.60
2019-02-28T08:03:29.396Z,39.50
2019-02-28T08:05:57.241Z,39.10
2019-02-28T08:08:26.466Z,38.30
2019-02-28T08:10:54.504Z,36.80
2019-02-28T08:13:24.773Z,35.90
2019-02-28T08:15:53.374Z,35.30
2019-02-28T08:18:21.785Z,34.00
2019-02-28T08:20:49.303Z,33.00
2019-02-28T08:23:16.727Z,31.90
2019-02-28T08:25:44.124Z,31.50
2019-02-28T08:28:11.480Z,30.50
2019-02-28T08:30:41.018Z,30.10
2019-02-28T08:33:08.641Z,29.40
2019-02-28T08:35:36.220Z,28.80
2019-02-28T08:38:04.070Z,28.50
2019-02-28T08:40:31.702Z,27.90
2019-02-28T08:42:59.161Z,27.40
2019-02-28T08:45:32.621Z,27.20
2019-02-28T08:47:56.956Z,26.70
2019-02-28T08:50:24.738Z,26.40
2019-02-28T08:52:52.467Z,26.10
2019-02-28T08:55:28.609Z,26.00
2019-02-28T08:57:54.710Z,25.60
2019-02-28T09:00:21.667Z,25.10
2019-02-28T09:02:52.223Z,25.20
2019-02-28T09:05:18.758Z,24.60
2019-02-28T09:07:50.804Z,24.40
2019-02-28T09:10:18.465Z,24.00
2019-02-28T09:12:48.472Z,23.90
2019-02-28T09:15:16.755Z,23.70
2019-02-28T09:17:44.346Z,23.40
2019-02-28T09:20:13.248Z,23.30
2019-02-28T09:22:40.727Z,22.60
2019-02-28T09:25:10.897Z,22.80
2019-02-28T09:27:38.780Z,22.50
2019-02-28T09:30:12.926Z,22.20
2019-02-28T09:32:40.374Z,22.40
2019-02-28T09:35:12.261Z,22.30
2019-02-28T09:37:37.435Z,22.40
2019-02-28T09:40:06.974Z,22.10
2019-02-28T09:42:34.470Z,22.00
2019-02-28T09:45:06.425Z,22.00
2019-02-28T09:47:31.714Z,21.90
2019-02-28T09:49:59.236Z,22.10
2019-02-28T09:52:26.857Z,21.90
2019-02-28T09:54:56.378Z,21.90
2019-02-28T09:57:23.706Z,21.70
2019-02-28T09:59:51.229Z,21.40
2019-02-28T10:02:18.705Z,21.70
2019-02-28T10:04:46.290Z,21.80
2019-02-28T10:07:13.821Z,21.50
2019-02-28T10:09:44.372Z,21.30
2019-02-28T10:12:12.952Z,21.30
2019-02-28T10:14:40.824Z,21.40
2019-02-28T10:17:08.245Z,21.40
2019-02-28T10:19:44.816Z,21.30
2019-02-28T10:22:04.976Z,21.50
2019-02-28T10:24:32.402Z,21.30
2019-02-28T10:26:59.759Z,21.30
2019-02-28T10:29:27.360Z,21.40
2019-02-28T10:31:54.859Z,21.20
2019-02-28T10:34:23.517Z,21.10
2019-02-28T10:36:51.728Z,20.90
2019-02-28T10:39:19.464Z,20.90
2019-02-28T10:41:47.049Z,21.00
2019-02-28T10:44:14.726Z,21.50
2019-02-28T10:46:42.107Z,21.70
2019-02-28T10:49:09.489Z,21.30
2019-02-28T10:51:37.011Z,20.50
2019-02-28T10:54:04.686Z,20.90
2019-02-28T10:56:34.961Z,21.10
2019-02-28T10:59:02.672Z,21.00
2019-02-28T11:01:30.112Z,20.40
2019-02-28T11:03:57.719Z,20.40
2019-02-28T11:06:28.247Z,19.90
2019-02-28T11:08:54.957Z,19.90
2019-02-28T11:11:22.571Z,19.60
2019-02-28T11:13:50.065Z,20.10
2019-02-28T11:16:20.476Z,20.30
2019-02-28T11:18:47.093Z,20.40
2019-02-28T11:21:14.783Z,20.40
2019-02-28T11:23:42.726Z,20.50
2019-02-28T11:26:10.476Z,20.50
2019-02-28T11:28:38.152Z,20.30
2019-02-28T11:31:05.703Z,20.40
2019-02-28T11:33:33.371Z,20.30
2019-02-28T11:36:01.014Z,20.00
2019-02-28T11:38:29.490Z,19.60
2019-02-28T11:40:57.706Z,19.80
2019-02-28T11:43:26.790Z,20.00
2019-02-28T11:45:56.556Z,20.30
2019-02-28T11:48:24.995Z,20.30
2019-02-28T11:50:53.524Z,20.30
2019-02-28T11:53:21.006Z,19.90
2019-02-28T11:55:48.569Z,20.40
2019-02-28T11:58:17.593Z,20.20
2019-02-28T12:00:45.599Z,20.00
2019-02-28T12:03:13.159Z,19.90
2019-02-28T12:05:40.715Z,20.40
2019-02-28T12:08:10.481Z,20.70
2019-02-28T12:10:37.858Z,20.30
2019-02-28T12:13:05.310Z,20.50
2019-02-28T12:15:32.968Z,20.30
2019-02-28T12:18:04.474Z,20.10
2019-02-28T12:20:30.218Z,20.20
2019-02-28T12:22:57.702Z,20.00
2019-02-28T12:25:26.604Z,19.80
2019-02-28T12:27:55.327Z,19.50
2019-02-28T12:30:26.040Z,19.40
2019-02-28T12:32:53.716Z,19.10
2019-02-28T12:35:21.320Z,19.10
2019-02-28T12:37:48.995Z,19.30
2019-02-28T12:40:22.769Z,19.30
2019-02-28T12:42:51.390Z,19.30
2019-02-28T12:45:26.558Z,19.00
2019-02-28T12:47:55.662Z,19.20
2019-02-28T12:50:23.571Z,18.90
2019-02-28T12:52:50.889Z,19.50
2019-02-28T12:55:18.512Z,19.60
2019-02-28T12:57:45.996Z,19.20
2019-02-28T13:00:23.427Z,19.30
2019-02-28T13:02:49.534Z,19.10
2019-02-28T13:05:17.387Z,19.10
2019-02-28T13:07:45.258Z,19.20
2019-02-28T13:10:15.961Z,19.30
2019-02-28T13:12:48.861Z,19.30
2019-02-28T13:15:15.725Z,19.40
2019-02-28T13:17:44.429Z,19.30
2019-02-28T13:20:14.979Z,19.40
2019-02-28T13:22:43.014Z,19.60
2019-02-28T13:25:11.846Z,19.50
2019-02-28T13:27:41.430Z,19.50
2019-02-28T13:30:21.418Z,19.20
2019-02-28T13:32:50.850Z,19.30
2019-02-28T13:35:24.932Z,19.90
2019-02-28T13:37:53.991Z,20.20
2019-02-28T13:40:22.931Z,20.40
2019-02-28T13:42:50.751Z,20.00
2019-02-28T13:45:23.244Z,20.20
2019-02-28T13:47:52.286Z,20.10
2019-02-28T13:50:27.100Z,20.20
2019-02-28T13:52:55.919Z,20.70
2019-02-28T13:55:24.361Z,20.90
2019-02-28T13:57:54.997Z,21.20
2019-02-28T14:00:28.246Z,21.20
2019-02-28T14:03:01.071Z,21.20
2019-02-28T14:05:28.964Z,21.70
2019-02-28T14:07:56.642Z,22.30
2019-02-28T14:10:24.387Z,22.80
2019-02-28T14:12:53.207Z,23.50
2019-02-28T14:15:26.118Z,24.20
2019-02-28T14:17:53.647Z,25.00
2019-02-28T14:20:24.509Z,25.70
2019-02-28T14:22:51.225Z,26.40
2019-02-28T14:25:19.323Z,26.90
2019-02-28T14:27:46.922Z,27.40
2019-02-28T14:30:14.697Z,27.70
2019-02-28T14:32:45.411Z,27.70
2019-02-28T14:35:14.475Z,27.20
2019-02-28T14:37:42.201Z,26.60
2019-02-28T14:40:11.262Z,26.20
2019-02-28T14:42:40.816Z,26.20
2019-02-28T14:45:11.466Z,26.60
2019-02-28T14:47:39.172Z,27.30
2019-02-28T14:50:08.329Z,28.60
2019-02-28T14:52:39.367Z,29.90
2019-02-28T14:55:07.941Z,31.90
2019-02-28T14:57:35.647Z,32.80
2019-02-28T15:00:06.487Z,33.80
2019-02-28T15:02:34.820Z,34.80
2019-02-28T15:05:02.235Z,35.50
2019-02-28T15:07:29.696Z,36.20
2019-02-28T15:09:58.940Z,36.90
2019-02-28T15:12:26.867Z,37.20
2019-02-28T15:14:54.641Z,37.70
2019-02-28T15:17:22.513Z,37.60
2019-02-28T15:19:50.098Z,38.00
2019-02-28T15:22:21.083Z,37.80
2019-02-28T15:24:47.707Z,38.70
2019-02-28T15:27:19.228Z,38.70
2019-02-28T15:29:47.881Z,38.70
2019-02-28T15:32:17.086Z,38.70
2019-02-28T15:34:44.789Z,39.00
2019-02-28T15:37:13.976Z,39.50
2019-02-28T15:39:43.422Z,39.60
2019-02-28T15:42:11.206Z,40.10
2019-02-28T15:44:38.629Z,40.80
2019-02-28T15:47:06.290Z,41.00
2019-02-28T15:49:33.871Z,41.60
2019-02-28T15:52:01.841Z,42.10
2019-02-28T15:54:31.048Z,43.30
2019-02-28T15:56:58.635Z,43.10
2019-02-28T15:59:27.502Z,43.60
2019-02-28T16:01:54.984Z,43.90
2019-02-28T16:04:26.249Z,44.30
2019-02-28T16:06:57.950Z,44.70
2019-02-28T16:09:22.558Z,45.00
2019-02-28T16:11:50.033Z,45.80
2019-02-28T16:14:17.860Z,46.00
2019-02-28T16:16:46.272Z,46.40
2019-02-28T16:19:13.981Z,46.80
2019-02-28T16:21:42.487Z,47.20
2019-02-28T16:24:11.781Z,47.50
2019-02-28T16:26:39.384Z,48.20
2019-02-28T16:29:06.809Z,48.70
2019-02-28T16:31:35.326Z,49.20
2019-02-28T16:34:08.102Z,49.60
2019-02-28T16:36:32.708Z,50.00
2019-02-28T16:39:00.600Z,50.20
2019-02-28T16:41:27.966Z,51.10
2019-02-28T16:43:57.158Z,51.10
2019-02-28T16:46:25.550Z,51.30
2019-02-28T16:48:53.112Z,51.40
2019-02-28T16:51:22.316Z,51.90
2019-02-28T16:53:49.944Z,52.10
2019-02-28T16:56:18.051Z,52.40
2019-02-28T16:58:45.509Z,52.80
2019-02-28T17:01:14.115Z,52.90
2019-02-28T17:03:41.902Z,53.20
2019-02-28T17:06:10.564Z,53.50
2019-02-28T17:08:45.801Z,54.00
2019-02-28T17:11:14.617Z,54.30
2019-02-28T17:13:51.741Z,54.40
2019-02-28T17:16:25.866Z,54.80
2019-02-28T17:18:56.875Z,54.80
2019-02-28T17:21:23.231Z,55.30
2019-02-28T17:23:50.823Z,55.60
2019-02-28T17:26:21.554Z,55.90
2019-02-28T17:29:13.961Z,56.30
2019-02-28T17:31:48.219Z,56.70
2019-02-28T17:34:23.871Z,57.10
2019-02-28T17:36:49.879Z,57.40
2019-02-28T17:39:17.314Z,57.70
2019-02-28T17:41:45.856Z,58.30
2019-02-28T17:45:03.246Z,58.70
2019-02-28T17:48:12.842Z,59.20
2019-02-28T17:51:22.006Z,59.60
2019-02-28T17:54:46.483Z,60.20
2019-02-28T17:58:18.974Z,60.70
2019-02-28T18:01:37.905Z,61.20
2019-02-28T18:05:00.842Z,61.90
2019-02-28T18:08:20.090Z,62.10
2019-02-28T18:11:35.114Z,62.80
2019-02-28T18:14:34.814Z,63.60
2019-02-28T18:17:54.598Z,64.70
2019-02-28T18:21:06.267Z,64.80
2019-02-28T18:24:42.064Z,65.10
2019-02-28T18:28:03.164Z,65.70
2019-02-28T18:31:04.883Z,66.40
2019-02-28T18:33:32.384Z,67.00
2019-02-28T18:35:59.863Z,68.80
2019-02-28T18:38:27.767Z,68.40
2019-02-28T18:40:55.545Z,69.50
2019-02-28T18:43:23.924Z,69.30
2019-02-28T18:45:53.625Z,69.60
2019-02-28T18:48:22.210Z,69.90
2019-02-28T18:50:49.620Z,70.30
2019-02-28T18:53:17.193Z,70.30
2019-02-28T18:55:44.754Z,70.70
2019-02-28T18:58:15.288Z,70.80
2019-02-28T19:00:43.015Z,71.50
2019-02-28T19:03:10.732Z,71.80
2019-02-28T19:05:38.231Z,72.40
2019-02-28T19:08:05.795Z,73.50
2019-02-28T19:10:34.341Z,73.20
2019-02-28T19:13:02.741Z,73.60
2019-02-28T19:15:30.343Z,74.10
2019-02-28T19:17:57.968Z,73.80
2019-02-28T19:20:25.713Z,74.30
2019-02-28T19:22:53.330Z,74.70
2019-02-28T19:25:21.353Z,75.30
2019-02-28T19:27:48.847Z,75.50
2019-02-28T19:30:17.329Z,75.20
2019-02-28T19:32:45.493Z,75.50
2019-02-28T19:35:13.137Z,75.20
2019-02-28T19:37:40.719Z,75.50
2019-02-28T19:40:08.811Z,76.00
2019-02-28T19:42:36.469Z,75.40
2019-02-28T19:45:07.372Z,75.50
2019-02-28T19:47:34.927Z,75.30
2019-02-28T19:50:03.313Z,75.60
2019-02-28T19:52:31.989Z,75.60
2019-02-28T19:54:59.783Z,75.80
2019-02-28T19:57:27.549Z,75.90
2019-02-28T19:59:57.014Z,76.30
2019-02-28T20:02:24.545Z,76.30
2019-02-28T20:04:52.710Z,76.40
2019-02-28T20:07:20.318Z,76.30
2019-02-28T20:09:47.972Z,76.20
2019-02-28T20:12:15.602Z,76.30
2019-02-28T20:14:43.220Z,76.30
2019-02-28T20:17:10.716Z,76.60
2019-02-28T20:19:38.267Z,77.30
2019-02-28T20:22:06.070Z,77.50
2019-02-28T20:24:33.560Z,77.60
2019-02-28T20:27:01.144Z,78.10
2019-02-28T20:29:28.650Z,78.30
2019-02-28T20:31:56.134Z,78.90
2019-02-28T20:34:23.925Z,78.70
2019-02-28T20:36:51.620Z,78.60
2019-02-28T20:39:19.398Z,78.80
2019-02-28T20:41:46.907Z,78.80
2019-02-28T20:44:14.481Z,78.70
2019-02-28T20:46:41.979Z,78.40
2019-02-28T20:49:10.042Z,79.10
2019-02-28T20:51:37.610Z,78.40
2019-02-28T20:54:05.815Z,78.40
2019-02-28T20:56:33.770Z,78.30
2019-02-28T20:59:01.307Z,78.20
2019-02-28T21:01:29.279Z,77.80
2019-02-28T21:03:57.371Z,78.10
2019-02-28T21:06:25.137Z,78.00
2019-02-28T21:08:52.826Z,77.90
2019-02-28T21:11:21.661Z,78.00
2019-02-28T21:13:49.225Z,78.30
2019-02-28T21:16:17.043Z,78.30
2019-02-28T21:18:45.619Z,78.70
2019-02-28T21:21:13.146Z,78.40
2019-02-28T21:23:42.253Z,78.80
2019-02-28T21:26:09.975Z,78.60
2019-02-28T21:28:37.624Z,78.80
2019-02-28T21:31:05.202Z,79.00
2019-02-28T21:33:33.009Z,79.40
2019-02-28T21:36:00.925Z,79.20
2019-02-28T21:38:28.537Z,79.30
2019-02-28T21:40:56.095Z,79.60
2019-02-28T21:43:24.050Z,79.90
2019-02-28T21:45:51.984Z,80.00
2019-02-28T21:48:20.310Z,80.30
2019-02-28T21:50:49.025Z,80.20
2019-02-28T21:53:29.019Z,80.80
2019-02-28T21:55:59.540Z,80.80
2019-02-28T21:58:31.232Z,81.00
2019-02-28T22:01:00.582Z,81.00
2019-02-28T22:03:30.015Z,81.10
2019-02-28T22:06:00.148Z,81.20
2019-02-28T22:08:28.110Z,81.60
2019-02-28T22:10:55.492Z,81.60
2019-02-28T22:13:22.995Z,81.60
2019-02-28T22:15:50.854Z,81.80
2019-02-28T22:18:18.422Z,81.80
2019-02-28T22:21:15.625Z,81.70
2019-02-28T22:23:44.236Z,81.90
2019-02-28T22:26:11.981Z,82.10
2019-02-28T22:28:39.498Z,82.60
2019-02-28T22:31:44.656Z,82.50
2019-02-28T22:34:25.533Z,82.50
2019-02-28T22:36:52.907Z,84.00
2019-02-28T22:39:20.942Z,83.50
2019-02-28T22:41:48.364Z,83.60
2019-02-28T22:44:15.943Z,84.00
2019-02-28T22:46:43.543Z,84.40
2019-02-28T22:49:11.060Z,85.00
2019-02-28T22:51:38.457Z,84.70
2019-02-28T22:54:06.125Z,84.90
2019-02-28T22:56:33.583Z,85.20
2019-02-28T22:59:01.241Z,85.70
2019-02-28T23:01:29.425Z,85.90
2019-02-28T23:03:57.846Z,85.90
2019-02-28T23:06:27.400Z,86.00
2019-02-28T23:08:56.852Z,86.40
2019-02-28T23:11:26.248Z,86.70
2019-02-28T23:13:53.743Z,86.50
2019-02-28T23:16:24.597Z,86.40
2019-02-28T23:18:52.009Z,86.60
2019-02-28T23:21:19.548Z,86.50
2019-02-28T23:23:47.228Z,86.70
2019-02-28T23:26:14.900Z,87.00
2019-02-28T23:29:03.540Z,86.90
2019-02-28T23:32:22.836Z,87.30
2019-02-28T23:34:52.901Z,87.80
2019-02-28T23:37:20.511Z,90.00
2019-02-28T23:39:47.939Z,89.00
2019-02-28T23:42:16.550Z,88.90
2019-02-28T23:44:44.280Z,89.60
2019-02-28T23:47:11.724Z,89.80
2019-02-28T23:49:40.113Z,90.00
2019-02-28T23:52:07.824Z,90.00
2019-02-28T23:54:35.465Z,90.00
2019-02-28T23:57:03.064Z,90.10
2019-02-28T23:59:30.517Z,90.00
